Time;durP1;ratioP1;P1;durP2;ratioP2;P2;SDS_P1;SDS_P2;PMS_P1;PMS_P2;Temp;Humidity;BMP_temperature;BMP_pressure;BME280_temperature;BME280_humidity;BME280_pressure;Samples;Min_cycle;Max_cycle;Signal;HPM_P1;HPM_P2
2023/03/30 00:01:16;;;;;;;;;;;11.30;99.90;;;;;;5153971;27;19927;-36
2023/03/30 00:03:43;;;;;;;;;;;11.30;99.90;;;;;;5150463;27;19974;-36
2023/03/30 00:06:10;;;;;;;;;;;11.30;99.90;;;;;;5137191;27;19998;-36
2023/03/30 00:08:37;;;;;;;;;;;11.30;99.90;;;;;;5142786;27;19927;-35
2023/03/30 00:11:05;;;;;;;;;;;11.30;99.90;;;;;;5152965;27;20370;-35
2023/03/30 00:13:32;;;;;;;;;;;11.30;99.90;;;;;;5129900;27;19923;-35
2023/03/30 00:15:58;;;;;;;;;;;11.40;99.90;;;;;;5140395;27;19923;-36
2023/03/30 00:18:25;;;;;;;;;;;11.40;99.90;;;;;;5119481;27;19953;-35
2023/03/30 00:20:52;;;;;;;;;;;11.40;99.90;;;;;;5138977;27;19931;-36
2023/03/30 00:23:18;;;;;;;;;;;11.50;99.90;;;;;;5155664;27;20339;-36
2023/03/30 00:25:45;;;;;;;;;;;11.50;99.90;;;;;;5132522;27;19927;-36
2023/03/30 00:28:13;;;;;;;;;;;11.50;99.90;;;;;;5149792;27;19924;-36
2023/03/30 00:30:40;;;;;;;;;;;11.60;99.90;;;;;;5155874;27;19981;-36
2023/03/30 00:33:07;;;;;;;;;;;11.50;99.90;;;;;;5156684;27;19927;-36
2023/03/30 00:35:33;;;;;;;;;;;11.50;99.90;;;;;;5119699;27;19924;-36
2023/03/30 00:38:02;;;;;;;;;;;11.50;99.90;;;;;;5149315;27;19976;-36
2023/03/30 00:40:28;;;;;;;;;;;11.50;99.90;;;;;;5151931;27;19923;-36
2023/03/30 00:42:57;;;;;;;;;;;11.60;99.90;;;;;;5124231;27;19927;-36
2023/03/30 00:45:26;;;;;;;;;;;11.60;99.90;;;;;;5137030;27;20397;-36
2023/03/30 00:47:57;;;;;;;;;;;11.60;99.90;;;;;;5136287;27;19969;-37
2023/03/30 00:50:24;;;;;;;;;;;11.60;99.90;;;;;;5151142;27;19990;-36
2023/03/30 00:52:52;;;;;;;;;;;11.60;99.90;;;;;;5131582;27;20332;-35
2023/03/30 00:55:19;;;;;;;;;;;11.60;99.90;;;;;;5154831;27;20191;-35
2023/03/30 00:57:46;;;;;;;;;;;11.50;99.90;;;;;;5155128;27;19923;-35
2023/03/30 01:00:13;;;;;;;;;;;11.60;99.90;;;;;;5143922;27;20322;-35
2023/03/30 01:02:42;;;;;;;;;;;11.60;99.90;;;;;;5152469;27;19923;-35
2023/03/30 01:05:09;;;;;;;;;;;11.60;99.90;;;;;;5154208;27;20346;-35
2023/03/30 01:07:36;;;;;;;;;;;11.60;99.90;;;;;;5142043;27;19982;-35
2023/03/30 01:10:03;;;;;;;;;;;11.60;99.90;;;;;;5152656;27;19931;-35
2023/03/30 01:12:30;;;;;;;;;;;11.60;99.90;;;;;;5128729;27;19968;-36
2023/03/30 01:14:57;;;;;;;;;;;11.60;99.90;;;;;;5147006;27;19975;-36
2023/03/30 01:17:25;;;;;;;;;;;11.60;99.90;;;;;;5154722;27;19924;-35
2023/03/30 01:20:11;;;;;;;;;;;11.60;99.90;;;;;;5134160;27;19970;-35
2023/03/30 01:22:41;;;;;;;;;;;11.60;99.90;;;;;;5170317;27;20370;-37
2023/03/30 01:25:17;;;;;;;;;;;11.70;99.90;;;;;;5136219;27;19967;-35
2023/03/30 01:27:52;;;;;;;;;;;11.60;99.90;;;;;;5134746;27;20006;-35
2023/03/30 01:30:26;;;;;;;;;;;11.70;99.90;;;;;;5135880;27;19950;-35
2023/03/30 01:33:09;;;;;;;;;;;11.70;99.90;;;;;;5125785;27;20003;-36
2023/03/30 01:35:42;;;;;;;;;;;11.70;99.90;;;;;;5152692;27;19927;-36
2023/03/30 01:38:22;;;;;;;;;;;11.80;99.90;;;;;;5143260;27;19927;-36
2023/03/30 01:40:50;;;;;;;;;;;11.80;99.90;;;;;;5130932;27;19966;-36
2023/03/30 01:43:17;;;;;;;;;;;11.80;99.90;;;;;;5116524;27;20398;-36
2023/03/30 01:45:45;;;;;;;;;;;11.70;99.90;;;;;;5137025;27;19970;-36
2023/03/30 01:48:13;;;;;;;;;;;11.70;99.90;;;;;;5135994;27;20005;-36
2023/03/30 01:50:40;;;;;;;;;;;11.80;99.90;;;;;;5135654;27;19923;-36
2023/03/30 01:53:09;;;;;;;;;;;11.80;99.90;;;;;;5119246;27;19938;-36
2023/03/30 01:55:36;;;;;;;;;;;11.80;99.90;;;;;;5135618;27;20651;-36
2023/03/30 01:58:05;;;;;;;;;;;11.80;99.90;;;;;;5152380;27;20435;-36
2023/03/30 02:00:32;;;;;;;;;;;11.80;99.90;;;;;;5152829;27;20471;-36
2023/03/30 02:03:00;;;;;;;;;;;11.70;99.90;;;;;;5122770;27;19966;-37
2023/03/30 02:05:26;;;;;;;;;;;11.80;99.90;;;;;;5142479;27;19923;-36
2023/03/30 02:07:53;;;;;;;;;;;11.70;99.90;;;;;;5140851;27;19967;-37
2023/03/30 02:10:21;;;;;;;;;;;11.80;99.90;;;;;;5150877;27;20306;-36
2023/03/30 02:12:47;;;;;;;;;;;11.80;99.90;;;;;;5150503;27;19951;-36
2023/03/30 02:15:15;;;;;;;;;;;11.80;99.90;;;;;;5148017;27;20442;-36
2023/03/30 02:17:44;;;;;;;;;;;11.80;99.90;;;;;;5153590;27;20354;-36
2023/03/30 02:20:11;;;;;;;;;;;11.80;99.90;;;;;;5149697;27;19959;-36
2023/03/30 02:22:38;;;;;;;;;;;11.80;99.90;;;;;;5145879;27;20025;-36
2023/03/30 02:25:05;;;;;;;;;;;11.70;99.90;;;;;;5134272;27;19923;-36
2023/03/30 02:27:32;;;;;;;;;;;11.70;99.90;;;;;;5147678;27;19930;-36
2023/03/30 02:29:59;;;;;;;;;;;11.70;99.90;;;;;;5143996;27;19977;-37
2023/03/30 02:32:27;;;;;;;;;;;11.70;99.90;;;;;;5148330;27;19923;-36
2023/03/30 02:35:01;;;;;;;;;;;11.70;99.90;;;;;;5133721;27;20374;-36
2023/03/30 02:37:32;;;;;;;;;;;11.80;99.90;;;;;;5143539;27;20000;-36
2023/03/30 02:40:08;;;;;;;;;;;11.70;99.90;;;;;;5150641;27;19928;-36
2023/03/30 02:42:45;;;;;;;;;;;11.80;99.90;;;;;;5136473;27;19976;-36
2023/03/30 02:45:15;;;;;;;;;;;11.80;99.90;;;;;;5129983;27;19966;-36
2023/03/30 02:47:45;;;;;;;;;;;11.80;99.90;;;;;;5133430;27;19992;-36
2023/03/30 02:50:13;;;;;;;;;;;11.80;99.90;;;;;;5150266;27;19928;-36
2023/03/30 02:52:41;;;;;;;;;;;11.70;99.90;;;;;;5115199;27;19931;-36
2023/03/30 02:55:13;;;;;;;;;;;11.70;99.90;;;;;;5151955;27;20019;-36
2023/03/30 02:57:44;;;;;;;;;;;11.70;99.90;;;;;;5134884;27;19924;-36
2023/03/30 03:00:12;;;;;;;;;;;11.70;99.90;;;;;;5123625;27;19924;-36
2023/03/30 03:02:39;;;;;;;;;;;11.70;99.90;;;;;;5134150;27;20015;-37
2023/03/30 03:05:08;;;;;;;;;;;11.70;99.90;;;;;;5125718;27;20489;-36
2023/03/30 03:07:34;;;;;;;;;;;11.70;99.90;;;;;;5146774;27;19923;-35
2023/03/30 03:10:01;;;;;;;;;;;11.60;99.90;;;;;;5133077;27;20020;-36
2023/03/30 03:12:28;;;;;;;;;;;11.70;99.90;;;;;;5138591;27;19984;-35
2023/03/30 03:14:55;;;;;;;;;;;11.70;99.90;;;;;;5150999;27;19974;-36
2023/03/30 03:17:21;;;;;;;;;;;11.70;99.90;;;;;;5143459;27;19923;-36
2023/03/30 03:19:48;;;;;;;;;;;11.60;99.90;;;;;;5155838;27;20002;-36
2023/03/30 03:22:16;;;;;;;;;;;11.60;99.90;;;;;;5152557;27;19955;-35
2023/03/30 03:24:43;;;;;;;;;;;11.70;99.90;;;;;;5153804;27;20442;-36
2023/03/30 03:27:10;;;;;;;;;;;11.60;99.90;;;;;;5152610;27;19958;-37
2023/03/30 03:29:37;;;;;;;;;;;11.60;99.90;;;;;;5146140;27;20306;-36
2023/03/30 03:32:03;;;;;;;;;;;11.60;99.90;;;;;;5144419;27;19927;-36
2023/03/30 03:34:31;;;;;;;;;;;11.60;99.90;;;;;;5143126;27;19937;-36
2023/03/30 03:36:57;;;;;;;;;;;11.60;99.90;;;;;;5124837;27;19974;-36
2023/03/30 03:39:25;;;;;;;;;;;11.70;99.90;;;;;;5151572;27;19930;-37
2023/03/30 03:41:52;;;;;;;;;;;11.70;99.90;;;;;;5133944;27;19981;-36
2023/03/30 03:44:19;;;;;;;;;;;11.70;99.90;;;;;;5123564;27;19976;-36
2023/03/30 03:46:45;;;;;;;;;;;11.70;99.90;;;;;;5153543;27;19927;-37
2023/03/30 03:49:12;;;;;;;;;;;11.80;99.90;;;;;;5148198;27;19924;-36
2023/03/30 03:51:39;;;;;;;;;;;11.80;99.90;;;;;;5149474;27;19931;-37
2023/03/30 03:54:05;;;;;;;;;;;11.80;99.90;;;;;;5115116;28;19923;-35
2023/03/30 03:56:33;;;;;;;;;;;11.90;99.90;;;;;;5114901;28;19975;-35
2023/03/30 03:59:02;;;;;;;;;;;11.90;99.90;;;;;;5126340;27;19955;-35
2023/03/30 04:01:29;;;;;;;;;;;12.00;99.90;;;;;;5150167;27;19930;-35
2023/03/30 04:03:56;;;;;;;;;;;12.00;99.90;;;;;;5114974;27;19974;-35
2023/03/30 04:06:22;;;;;;;;;;;12.00;99.90;;;;;;5133279;27;19924;-35
2023/03/30 04:08:49;;;;;;;;;;;12.00;99.90;;;;;;5114447;27;20419;-37
2023/03/30 04:11:16;;;;;;;;;;;11.90;99.90;;;;;;5132830;28;20233;-35
2023/03/30 04:13:44;;;;;;;;;;;12.10;99.90;;;;;;5149209;27;19924;-36
2023/03/30 04:16:11;;;;;;;;;;;12.10;99.90;;;;;;5135235;27;19927;-35
2023/03/30 04:18:40;;;;;;;;;;;12.10;99.90;;;;;;5150975;27;19923;-35
2023/03/30 04:21:11;;;;;;;;;;;12.10;99.90;;;;;;5119280;27;20381;-35
2023/03/30 04:23:38;;;;;;;;;;;12.10;99.90;;;;;;5139159;27;19930;-35
2023/03/30 04:26:06;;;;;;;;;;;12.20;99.90;;;;;;5155344;27;19923;-34
2023/03/30 04:28:32;;;;;;;;;;;12.20;99.90;;;;;;5151585;27;19923;-35
2023/03/30 04:31:01;;;;;;;;;;;12.20;99.90;;;;;;5125302;27;20588;-35
2023/03/30 04:33:27;;;;;;;;;;;12.20;99.90;;;;;;5137239;27;19973;-35
2023/03/30 04:35:54;;;;;;;;;;;12.20;99.90;;;;;;5153215;27;19923;-34
2023/03/30 04:38:22;;;;;;;;;;;12.20;99.90;;;;;;5119962;27;19978;-35
2023/03/30 04:40:48;;;;;;;;;;;12.20;99.90;;;;;;5118308;27;20412;-35
2023/03/30 04:43:18;;;;;;;;;;;12.20;99.90;;;;;;5135813;27;19929;-35
2023/03/30 04:45:48;;;;;;;;;;;12.20;99.90;;;;;;5156540;27;19968;-35
2023/03/30 04:48:16;;;;;;;;;;;12.10;99.90;;;;;;5136789;27;19923;-35
2023/03/30 04:50:43;;;;;;;;;;;12.10;99.90;;;;;;5138340;27;20014;-35
2023/03/30 04:53:10;;;;;;;;;;;12.10;99.90;;;;;;5119346;27;20005;-35
2023/03/30 04:55:36;;;;;;;;;;;12.10;99.90;;;;;;5146967;27;19931;-36
2023/03/30 04:58:03;;;;;;;;;;;12.10;99.90;;;;;;5142543;27;19923;-36
2023/03/30 05:00:30;;;;;;;;;;;12.00;99.90;;;;;;5161091;27;19923;-36
2023/03/30 05:02:56;;;;;;;;;;;12.00;99.90;;;;;;5143730;27;19976;-37
2023/03/30 05:05:24;;;;;;;;;;;12.00;99.90;;;;;;5145511;27;20020;-37
2023/03/30 05:07:52;;;;;;;;;;;11.90;99.90;;;;;;5140011;27;19970;-37
2023/03/30 05:10:19;;;;;;;;;;;11.90;99.90;;;;;;5148364;27;19927;-36
2023/03/30 05:12:46;;;;;;;;;;;11.90;99.90;;;;;;5146354;27;19923;-39
2023/03/30 05:15:12;;;;;;;;;;;11.90;99.90;;;;;;5157645;27;19958;-36
2023/03/30 05:17:39;;;;;;;;;;;11.80;99.90;;;;;;5128293;27;20015;-35
2023/03/30 05:20:07;;;;;;;;;;;11.80;99.90;;;;;;5128489;27;19923;-36
2023/03/30 05:22:35;;;;;;;;;;;11.80;99.90;;;;;;5142770;27;20018;-37
2023/03/30 05:25:02;;;;;;;;;;;11.80;99.90;;;;;;5152685;27;19931;-36
2023/03/30 05:27:28;;;;;;;;;;;11.80;99.90;;;;;;5152866;27;19968;-36
2023/03/30 05:29:55;;;;;;;;;;;11.80;99.90;;;;;;5150392;27;19923;-36
2023/03/30 05:32:22;;;;;;;;;;;11.80;99.90;;;;;;5154188;27;20021;-36
2023/03/30 05:34:48;;;;;;;;;;;11.80;99.90;;;;;;5164351;27;19927;-36
2023/03/30 05:37:15;;;;;;;;;;;11.80;99.90;;;;;;5154181;27;19927;-35
2023/03/30 05:39:43;;;;;;;;;;;11.80;99.90;;;;;;5172038;27;19985;-36
2023/03/30 05:42:10;;;;;;;;;;;11.80;99.90;;;;;;5151901;27;19969;-37
2023/03/30 05:44:36;;;;;;;;;;;11.90;99.90;;;;;;5116143;27;20010;-37
2023/03/30 05:47:03;;;;;;;;;;;11.80;99.90;;;;;;5138630;27;19927;-36
2023/03/30 05:49:30;;;;;;;;;;;11.90;99.90;;;;;;5135913;27;20343;-36
2023/03/30 05:51:56;;;;;;;;;;;11.90;99.90;;;;;;5155536;27;20367;-36
2023/03/30 05:54:25;;;;;;;;;;;11.90;99.90;;;;;;5154357;27;19924;-36
2023/03/30 05:56:53;;;;;;;;;;;11.90;99.90;;;;;;5170345;27;20397;-36
2023/03/30 05:59:20;;;;;;;;;;;11.90;99.90;;;;;;5144435;27;20283;-36
2023/03/30 06:01:47;;;;;;;;;;;12.00;99.90;;;;;;5116399;27;20298;-36
2023/03/30 06:04:14;;;;;;;;;;;12.00;99.90;;;;;;5116009;27;19927;-36
2023/03/30 06:06:41;;;;;;;;;;;12.00;99.90;;;;;;5137080;27;19962;-36
2023/03/30 06:09:09;;;;;;;;;;;12.00;99.90;;;;;;5154989;27;20336;-36
2023/03/30 06:11:35;;;;;;;;;;;12.00;99.90;;;;;;5153583;27;19959;-36
2023/03/30 06:14:03;;;;;;;;;;;12.00;99.90;;;;;;5153223;27;19972;-37
2023/03/30 06:16:30;;;;;;;;;;;12.00;99.90;;;;;;5144360;27;20498;-36
2023/03/30 06:18:57;;;;;;;;;;;12.00;99.90;;;;;;5152185;27;20327;-36
2023/03/30 06:21:24;;;;;;;;;;;12.00;99.90;;;;;;5157399;27;19924;-36
2023/03/30 06:23:50;;;;;;;;;;;12.00;99.90;;;;;;5139705;27;19924;-37
2023/03/30 06:26:17;;;;;;;;;;;12.00;99.90;;;;;;5137931;27;19935;-37
2023/03/30 06:28:44;;;;;;;;;;;12.00;99.90;;;;;;5126473;27;19981;-36
2023/03/30 06:31:12;;;;;;;;;;;12.00;99.90;;;;;;5137345;27;19926;-36
2023/03/30 06:33:39;;;;;;;;;;;12.00;99.90;;;;;;5137859;27;19924;-37
2023/03/30 06:36:08;;;;;;;;;;;12.00;99.90;;;;;;5137480;27;19924;-36
2023/03/30 06:38:35;;;;;;;;;;;12.00;99.90;;;;;;5142045;27;20442;-38
2023/03/30 06:41:04;;;;;;;;;;;12.00;99.90;;;;;;5142438;27;20339;-38
2023/03/30 06:43:30;;;;;;;;;;;12.10;99.90;;;;;;5139332;27;19982;-37
2023/03/30 06:45:57;;;;;;;;;;;12.10;99.90;;;;;;5120381;27;19930;-40
2023/03/30 06:48:25;;;;;;;;;;;12.10;99.90;;;;;;5158022;27;20036;-37
2023/03/30 06:50:52;;;;;;;;;;;12.10;99.90;;;;;;5147738;27;20054;-37
2023/03/30 06:53:18;;;;;;;;;;;12.00;99.90;;;;;;5144705;27;19924;-37
2023/03/30 06:55:45;;;;;;;;;;;12.10;99.90;;;;;;5125505;27;19928;-37
2023/03/30 06:58:12;;;;;;;;;;;12.10;99.90;;;;;;5160449;27;19963;-37
2023/03/30 07:00:38;;;;;;;;;;;12.10;99.90;;;;;;5144056;27;20343;-37
2023/03/30 07:03:05;;;;;;;;;;;12.20;99.90;;;;;;5157759;27;19930;-37
2023/03/30 07:05:33;;;;;;;;;;;12.20;99.90;;;;;;5138363;27;19927;-36
2023/03/30 07:08:00;;;;;;;;;;;12.20;99.90;;;;;;5139606;27;19976;-37
2023/03/30 07:10:26;;;;;;;;;;;12.20;99.90;;;;;;5135360;27;19923;-37
2023/03/30 07:12:53;;;;;;;;;;;12.30;99.90;;;;;;5136054;27;19924;-36
2023/03/30 07:15:20;;;;;;;;;;;12.30;99.90;;;;;;5151956;27;19931;-37
2023/03/30 07:17:47;;;;;;;;;;;12.30;99.90;;;;;;5124886;27;19976;-36
2023/03/30 07:20:14;;;;;;;;;;;12.30;99.90;;;;;;5135056;27;19924;-36
2023/03/30 07:22:42;;;;;;;;;;;12.30;99.90;;;;;;5118713;27;19930;-36
2023/03/30 07:25:09;;;;;;;;;;;12.40;99.90;;;;;;5118159;27;19968;-36
2023/03/30 07:27:36;;;;;;;;;;;12.40;99.90;;;;;;5149733;27;19931;-37
2023/03/30 07:30:04;;;;;;;;;;;12.40;99.90;;;;;;5141280;27;20377;-36
2023/03/30 07:32:30;;;;;;;;;;;12.50;99.90;;;;;;5137569;27;20018;-36
2023/03/30 07:34:57;;;;;;;;;;;12.40;99.90;;;;;;5133030;27;20220;-36
2023/03/30 07:37:24;;;;;;;;;;;12.50;99.90;;;;;;5115359;27;19924;-36
2023/03/30 07:39:52;;;;;;;;;;;12.50;99.90;;;;;;5142103;27;19924;-36
2023/03/30 07:42:18;;;;;;;;;;;12.50;99.90;;;;;;5138033;27;20366;-36
2023/03/30 07:44:45;;;;;;;;;;;12.50;99.90;;;;;;5150578;27;19923;-37
2023/03/30 07:47:12;;;;;;;;;;;12.50;99.90;;;;;;5143825;27;19923;-35
2023/03/30 07:49:38;;;;;;;;;;;12.50;99.90;;;;;;5140847;27;19931;-36
2023/03/30 07:52:06;;;;;;;;;;;12.50;99.90;;;;;;5119459;27;19976;-36
2023/03/30 07:54:32;;;;;;;;;;;12.50;99.90;;;;;;5126984;27;20035;-36
2023/03/30 07:57:00;;;;;;;;;;;12.50;99.90;;;;;;5137419;27;19976;-36
2023/03/30 07:59:27;;;;;;;;;;;12.50;99.90;;;;;;5129611;27;19927;-35
2023/03/30 08:01:54;;;;;;;;;;;12.50;99.90;;;;;;5119150;27;19969;-36
2023/03/30 08:04:23;;;;;;;;;;;12.50;99.90;;;;;;5137593;27;19923;-35
2023/03/30 08:06:51;;;;;;;;;;;12.50;99.90;;;;;;5144440;27;20019;-36
2023/03/30 08:09:18;;;;;;;;;;;12.50;99.90;;;;;;5120561;27;19927;-36
2023/03/30 08:11:45;;;;;;;;;;;12.50;99.90;;;;;;5137428;27;20326;-36
2023/03/30 08:14:12;;;;;;;;;;;12.50;99.90;;;;;;5144249;27;19923;-36
2023/03/30 08:16:39;;;;;;;;;;;12.50;99.90;;;;;;5119038;27;19924;-36
2023/03/30 08:19:07;;;;;;;;;;;12.50;99.90;;;;;;5129258;27;19975;-36
2023/03/30 08:21:33;;;;;;;;;;;12.50;99.90;;;;;;5136890;27;20354;-36
2023/03/30 08:24:00;;;;;;;;;;;12.50;99.90;;;;;;5128252;27;19982;-36
2023/03/30 08:26:27;;;;;;;;;;;12.40;99.90;;;;;;5147284;27;19997;-36
2023/03/30 08:28:53;;;;;;;;;;;12.40;99.90;;;;;;5137159;27;19923;-36
2023/03/30 08:31:21;;;;;;;;;;;12.50;99.90;;;;;;5140517;27;19923;-36
2023/03/30 08:33:48;;;;;;;;;;;12.40;99.90;;;;;;5123488;27;19927;-36
2023/03/30 08:36:15;;;;;;;;;;;12.40;99.90;;;;;;5137107;27;19929;-36
2023/03/30 08:38:44;;;;;;;;;;;12.40;99.90;;;;;;5127394;27;19973;-36
2023/03/30 08:41:18;;;;;;;;;;;12.40;99.90;;;;;;5137453;27;19984;-36
2023/03/30 08:43:47;;;;;;;;;;;12.40;99.90;;;;;;5130471;27;20331;-36
2023/03/30 08:46:14;;;;;;;;;;;12.40;99.90;;;;;;5136793;27;19954;-37
2023/03/30 08:48:42;;;;;;;;;;;12.40;99.90;;;;;;5129205;27;19975;-35
2023/03/30 08:51:12;;;;;;;;;;;12.30;99.90;;;;;;5138439;27;20404;-35
2023/03/30 08:53:38;;;;;;;;;;;12.40;99.90;;;;;;5125908;27;19923;-36
2023/03/30 08:56:07;;;;;;;;;;;12.40;99.90;;;;;;5136719;27;19924;-36
2023/03/30 08:58:35;;;;;;;;;;;12.40;99.90;;;;;;5123988;27;19951;-36
2023/03/30 09:01:06;;;;;;;;;;;12.40;99.90;;;;;;5129537;27;19935;-36
2023/03/30 09:03:35;;;;;;;;;;;12.40;99.90;;;;;;5132904;27;19923;-36
2023/03/30 09:06:06;;;;;;;;;;;12.40;99.90;;;;;;5125088;27;21643;-35
2023/03/30 09:08:33;;;;;;;;;;;12.50;99.90;;;;;;5139508;27;19924;-41
2023/03/30 09:11:00;;;;;;;;;;;12.50;99.90;;;;;;5136037;27;20267;-36
2023/03/30 09:13:28;;;;;;;;;;;12.50;99.90;;;;;;5133090;27;20018;-36
2023/03/30 09:15:55;;;;;;;;;;;12.60;99.90;;;;;;5147333;27;19924;-35
2023/03/30 09:18:23;;;;;;;;;;;12.80;99.90;;;;;;5132658;27;20332;-37
2023/03/30 09:20:50;;;;;;;;;;;13.00;99.90;;;;;;5142364;27;20374;-35
2023/03/30 09:23:18;;;;;;;;;;;13.10;99.90;;;;;;5131621;27;19924;-35
2023/03/30 09:25:46;;;;;;;;;;;13.20;99.90;;;;;;5126390;27;19962;-35
2023/03/30 09:28:14;;;;;;;;;;;13.20;99.90;;;;;;5121330;27;20442;-36
2023/03/30 09:30:41;;;;;;;;;;;13.20;99.90;;;;;;5140634;27;19924;-36
2023/03/30 09:33:12;;;;;;;;;;;13.20;99.90;;;;;;5129521;27;19931;-36
2023/03/30 09:35:40;;;;;;;;;;;13.20;99.90;;;;;;5141524;27;19966;-36
2023/03/30 09:38:09;;;;;;;;;;;13.20;99.90;;;;;;5153069;27;19930;-36
2023/03/30 09:40:40;;;;;;;;;;;13.30;99.90;;;;;;5133799;27;19978;-35
2023/03/30 09:43:08;;;;;;;;;;;13.50;99.90;;;;;;5139428;27;19931;-34
2023/03/30 09:45:35;;;;;;;;;;;13.60;99.90;;;;;;5121343;27;19930;-35
2023/03/30 09:48:06;;;;;;;;;;;13.70;99.90;;;;;;5136483;27;19955;-35
2023/03/30 09:50:36;;;;;;;;;;;13.70;99.90;;;;;;5126987;27;19930;-36
2023/03/30 09:53:03;;;;;;;;;;;13.80;99.90;;;;;;5147646;27;19923;-35
2023/03/30 09:55:30;;;;;;;;;;;13.80;99.90;;;;;;5120565;27;19931;-35
2023/03/30 09:58:11;;;;;;;;;;;13.80;99.90;;;;;;5136010;27;19984;-36
2023/03/30 10:00:38;;;;;;;;;;;13.80;99.90;;;;;;5124046;27;19978;-35
2023/03/30 10:03:05;;;;;;;;;;;13.80;99.90;;;;;;5126091;27;19950;-35
2023/03/30 10:05:32;;;;;;;;;;;13.80;99.90;;;;;;5148398;27;19930;-35
2023/03/30 10:07:59;;;;;;;;;;;13.70;99.90;;;;;;5138160;27;20312;-35
2023/03/30 10:10:31;;;;;;;;;;;13.70;99.90;;;;;;5142535;27;19923;-35
2023/03/30 10:13:01;;;;;;;;;;;13.80;99.90;;;;;;5150338;27;20344;-36
2023/03/30 10:15:31;;;;;;;;;;;13.80;99.90;;;;;;5143393;27;19924;-35
2023/03/30 10:18:00;;;;;;;;;;;13.80;99.90;;;;;;5118064;27;20381;-36
2023/03/30 10:20:28;;;;;;;;;;;13.80;99.90;;;;;;5118590;27;20017;-36
2023/03/30 10:22:55;;;;;;;;;;;13.80;99.90;;;;;;5137005;27;19927;-36
2023/03/30 10:25:23;;;;;;;;;;;13.80;99.90;;;;;;5137838;27;19931;-36
2023/03/30 10:27:52;;;;;;;;;;;13.80;99.90;;;;;;5116413;27;20006;-35
2023/03/30 10:30:20;;;;;;;;;;;13.80;99.90;;;;;;5123692;27;20305;-36
2023/03/30 10:32:48;;;;;;;;;;;13.80;99.90;;;;;;5166142;27;19927;-37
2023/03/30 10:35:17;;;;;;;;;;;13.80;99.90;;;;;;5137246;27;19935;-35
2023/03/30 10:37:45;;;;;;;;;;;13.90;99.90;;;;;;5130319;27;19924;-36
2023/03/30 10:40:14;;;;;;;;;;;14.00;99.90;;;;;;5134731;27;19923;-36
2023/03/30 10:42:41;;;;;;;;;;;14.00;99.90;;;;;;5147033;27;19937;-35
2023/03/30 10:45:14;;;;;;;;;;;14.10;99.90;;;;;;5148447;27;20038;-35
2023/03/30 10:47:54;;;;;;;;;;;14.10;99.90;;;;;;5146289;27;19930;-37
2023/03/30 10:50:25;;;;;;;;;;;14.20;99.90;;;;;;5133920;27;20358;-36
2023/03/30 10:52:55;;;;;;;;;;;14.40;99.90;;;;;;5144232;27;20354;-36
2023/03/30 10:55:23;;;;;;;;;;;14.40;99.90;;;;;;5124712;27;20446;-37
2023/03/30 10:57:51;;;;;;;;;;;14.50;99.90;;;;;;5147569;27;19923;-35
2023/03/30 11:00:21;;;;;;;;;;;14.50;99.90;;;;;;5117000;27;19931;-37
2023/03/30 11:02:54;;;;;;;;;;;14.50;99.90;;;;;;5140273;27;19928;-35
2023/03/30 11:05:22;;;;;;;;;;;14.40;99.90;;;;;;5145333;27;19924;-35
2023/03/30 11:07:50;;;;;;;;;;;14.40;99.90;;;;;;5145867;27;20395;-35
2023/03/30 11:10:17;;;;;;;;;;;14.40;99.90;;;;;;5146036;27;20344;-37
2023/03/30 11:12:45;;;;;;;;;;;14.30;99.90;;;;;;5125471;27;20440;-35
2023/03/30 11:15:13;;;;;;;;;;;14.30;99.90;;;;;;5141481;27;19923;-34
2023/03/30 11:17:42;;;;;;;;;;;14.30;99.90;;;;;;5137438;27;19980;-36
2023/03/30 11:20:17;;;;;;;;;;;14.30;99.90;;;;;;5113135;27;20449;-35
2023/03/30 11:22:45;;;;;;;;;;;14.40;99.90;;;;;;5135914;27;20454;-35
2023/03/30 11:25:16;;;;;;;;;;;14.50;99.90;;;;;;5122963;27;19923;-36
2023/03/30 11:27:43;;;;;;;;;;;14.60;99.90;;;;;;5136485;27;20009;-36
2023/03/30 11:30:11;;;;;;;;;;;14.70;99.90;;;;;;5133015;27;19924;-36
2023/03/30 11:32:40;;;;;;;;;;;14.90;99.90;;;;;;5119043;27;19976;-36
2023/03/30 11:35:10;;;;;;;;;;;15.00;99.90;;;;;;5118727;27;20010;-35
2023/03/30 11:37:41;;;;;;;;;;;15.10;99.90;;;;;;5132809;27;19923;-36
2023/03/30 11:40:10;;;;;;;;;;;15.20;99.90;;;;;;5133795;27;19929;-36
2023/03/30 11:42:37;;;;;;;;;;;15.30;99.90;;;;;;5138055;27;21351;-36
2023/03/30 11:45:04;;;;;;;;;;;15.40;99.90;;;;;;5137041;27;20303;-35
2023/03/30 11:47:37;;;;;;;;;;;15.50;99.90;;;;;;5118992;27;20370;-35
2023/03/30 11:50:08;;;;;;;;;;;15.60;99.90;;;;;;5135082;27;19923;-35
2023/03/30 11:52:35;;;;;;;;;;;15.60;99.90;;;;;;5119045;27;19934;-35
2023/03/30 11:55:11;;;;;;;;;;;15.70;99.90;;;;;;5149472;27;19982;-35
2023/03/30 11:57:39;;;;;;;;;;;15.70;99.90;;;;;;5120237;27;19995;-36
2023/03/30 12:00:11;;;;;;;;;;;15.90;99.90;;;;;;5122500;27;19923;-37
2023/03/30 12:02:40;;;;;;;;;;;15.90;99.90;;;;;;5124198;27;19975;-36
2023/03/30 12:05:07;;;;;;;;;;;15.90;99.90;;;;;;5138002;27;20332;-36
2023/03/30 12:07:37;;;;;;;;;;;15.90;99.90;;;;;;5127915;27;19962;-35
2023/03/30 12:10:05;;;;;;;;;;;15.80;99.90;;;;;;5150128;27;19976;-36
2023/03/30 12:12:35;;;;;;;;;;;15.80;99.90;;;;;;5145451;27;20296;-35
2023/03/30 12:15:14;;;;;;;;;;;15.80;99.90;;;;;;5155284;27;19996;-36
2023/03/30 12:17:43;;;;;;;;;;;15.90;99.90;;;;;;5137160;27;19955;-36
2023/03/30 12:20:12;;;;;;;;;;;15.90;99.90;;;;;;5138390;27;19924;-36
2023/03/30 12:22:40;;;;;;;;;;;16.00;99.90;;;;;;5119170;27;19965;-35
2023/03/30 12:25:13;;;;;;;;;;;16.00;99.90;;;;;;5121546;27;19923;-36
2023/03/30 12:27:53;;;;;;;;;;;16.00;99.90;;;;;;5138992;27;19923;-36
2023/03/30 12:30:24;;;;;;;;;;;16.10;99.90;;;;;;5118131;27;20024;-36
2023/03/30 12:33:01;;;;;;;;;;;16.10;99.90;;;;;;5118222;27;19924;-36
2023/03/30 12:35:58;;;;;;;;;;;16.10;99.90;;;;;;5117621;27;20291;-36
2023/03/30 12:38:26;;;;;;;;;;;15.90;99.90;;;;;;5075620;28;20053;-35
2023/03/30 12:40:53;;;;;;;;;;;15.80;99.90;;;;;;5108301;27;19924;-35
2023/03/30 12:43:23;;;;;;;;;;;15.80;99.90;;;;;;5124980;27;19946;-36
2023/03/30 12:45:50;;;;;;;;;;;15.70;99.90;;;;;;5119368;27;19923;-35
2023/03/30 12:48:23;;;;;;;;;;;15.70;99.90;;;;;;5117660;27;19968;-35
2023/03/30 12:50:53;;;;;;;;;;;15.80;99.90;;;;;;5135817;27;19931;-36
2023/03/30 12:53:26;;;;;;;;;;;15.80;99.90;;;;;;5135661;27;19931;-36
2023/03/30 12:55:53;;;;;;;;;;;15.80;99.90;;;;;;5125111;27;19924;-36
2023/03/30 12:58:32;;;;;;;;;;;15.80;99.90;;;;;;5153194;27;19923;-35
2023/03/30 13:01:09;;;;;;;;;;;15.80;99.90;;;;;;5117819;27;20302;-36
2023/03/30 13:03:40;;;;;;;;;;;15.90;99.90;;;;;;5142098;27;19933;-36
2023/03/30 13:06:07;;;;;;;;;;;16.00;99.90;;;;;;5138568;27;19976;-36
2023/03/30 13:08:35;;;;;;;;;;;16.10;99.90;;;;;;5119509;27;19976;-36
2023/03/30 13:11:06;;;;;;;;;;;16.10;99.90;;;;;;5144689;27;20018;-36
2023/03/30 13:13:45;;;;;;;;;;;16.10;99.90;;;;;;5126330;27;19924;-36
2023/03/30 13:16:12;;;;;;;;;;;16.00;99.90;;;;;;5123920;27;19976;-37
2023/03/30 13:18:52;;;;;;;;;;;15.80;99.90;;;;;;5132955;27;19923;-37
2023/03/30 13:21:20;;;;;;;;;;;15.70;99.90;;;;;;5151551;27;19924;-38
2023/03/30 13:23:58;;;;;;;;;;;15.70;99.90;;;;;;5139256;27;20022;-35
2023/03/30 13:26:25;;;;;;;;;;;15.60;99.90;;;;;;5120757;27;19958;-37
2023/03/30 13:28:57;;;;;;;;;;;15.50;99.90;;;;;;5124977;27;19929;-35
2023/03/30 13:31:31;;;;;;;;;;;15.50;99.90;;;;;;5125870;27;19988;-34
2023/03/30 13:34:00;;;;;;;;;;;15.40;99.90;;;;;;5125877;27;20307;-35
2023/03/30 13:36:27;;;;;;;;;;;15.40;99.90;;;;;;5127266;27;19923;-35
2023/03/30 13:38:59;;;;;;;;;;;15.40;99.90;;;;;;5134794;27;19923;-35
2023/03/30 13:41:29;;;;;;;;;;;15.50;99.90;;;;;;5134064;27;19985;-35
2023/03/30 13:44:01;;;;;;;;;;;15.50;99.90;;;;;;5144676;27;19930;-35
2023/03/30 13:46:29;;;;;;;;;;;15.50;99.90;;;;;;5120536;27;20295;-35
2023/03/30 13:49:06;;;;;;;;;;;15.30;99.90;;;;;;5140180;27;19923;-36
2023/03/30 13:51:33;;;;;;;;;;;15.30;99.90;;;;;;5144711;27;20302;-35
2023/03/30 13:54:00;;;;;;;;;;;15.20;99.90;;;;;;5117895;27;19996;-36
2023/03/30 13:56:27;;;;;;;;;;;15.20;99.90;;;;;;5116611;27;19969;-35
2023/03/30 13:58:55;;;;;;;;;;;15.00;99.90;;;;;;5167372;27;19929;-35
2023/03/30 14:01:24;;;;;;;;;;;14.90;99.90;;;;;;5131876;27;19927;-34
2023/03/30 14:03:51;;;;;;;;;;;14.80;99.90;;;;;;5162428;27;19973;-36
2023/03/30 14:06:19;;;;;;;;;;;14.70;99.90;;;;;;5141001;27;19968;-34
2023/03/30 14:08:47;;;;;;;;;;;14.60;99.90;;;;;;5124963;27;20021;-35
2023/03/30 14:11:15;;;;;;;;;;;14.60;99.90;;;;;;5131370;27;20018;-36
2023/03/30 14:13:42;;;;;;;;;;;14.70;99.90;;;;;;5144672;27;20013;-36
2023/03/30 14:16:08;;;;;;;;;;;14.70;99.90;;;;;;5141904;27;19923;-38
2023/03/30 14:18:36;;;;;;;;;;;14.80;99.90;;;;;;5143675;27;19979;-34
2023/03/30 14:21:03;;;;;;;;;;;14.80;99.90;;;;;;5145619;27;19923;-35
2023/03/30 14:23:34;;;;;;;;;;;14.80;99.90;;;;;;5148637;27;19930;-35